Time;durP1;ratioP1;P1;durP2;ratioP2;P2;SDS_P1;SDS_P2;PMS_P1;PMS_P2;Temp;Humidity;BMP_temperature;BMP_pressure;BME280_temperature;BME280_humidity;BME280_pressure;Samples;Min_cycle;Max_cycle;Signal;HPM_P1;HPM_P2
2023/12/29 00:02:18;;;;;;;55.80;6.65;;;;;;;6.14;100.00;99041.72;5055282;28;20039;-65
2023/12/29 00:04:44;;;;;;;60.85;7.32;;;;;;;6.11;100.00;99038.41;5072615;28;20059;-67
2023/12/29 00:07:09;;;;;;;65.30;7.20;;;;;;;6.11;100.00;99038.41;5072236;28;20032;-64
2023/12/29 00:09:40;;;;;;;55.95;6.68;;;;;;;6.13;100.00;99042.75;5072608;28;20539;-65
2023/12/29 00:12:06;;;;;;;52.05;6.40;;;;;;;6.10;100.00;99039.47;5071763;28;20060;-65
2023/12/29 00:14:32;;;;;;;54.58;5.43;;;;;;;6.11;100.00;99025.06;5073013;28;20095;-65
2023/12/29 00:16:57;;;;;;;54.42;5.32;;;;;;;6.07;100.00;99023.88;5071369;28;20105;-64
2023/12/29 00:19:23;;;;;;;50.78;5.55;;;;;;;6.07;100.00;99023.88;5073210;28;20058;-65
2023/12/29 00:21:48;;;;;;;47.75;5.47;;;;;;;6.10;100.00;99019.97;5071570;28;20037;-67
2023/12/29 00:24:14;;;;;;;50.08;6.07;;;;;;;6.06;100.00;99019.56;5071593;28;20042;-65
2023/12/29 00:26:39;;;;;;;41.85;4.97;;;;;;;6.03;100.00;99016.50;5071442;28;20447;-64
2023/12/29 00:29:06;;;;;;;53.05;6.53;;;;;;;6.02;100.00;99023.69;5072761;28;20039;-64
2023/12/29 00:31:31;;;;;;;37.67;4.90;;;;;;;5.91;100.00;98999.50;5072245;28;20029;-64
2023/12/29 00:33:57;;;;;;;39.53;5.15;;;;;;;5.96;100.00;99013.88;5071510;28;20544;-64
2023/12/29 00:36:23;;;;;;;36.35;4.18;;;;;;;5.81;100.00;99000.75;5072673;28;20024;-65
2023/12/29 00:38:48;;;;;;;33.20;3.72;;;;;;;5.85;100.00;99006.50;5071889;28;20043;-65
2023/12/29 00:41:14;;;;;;;33.85;4.97;;;;;;;5.84;100.00;99015.53;5072331;28;20056;-65
2023/12/29 00:43:39;;;;;;;26.88;3.70;;;;;;;5.79;100.00;99026.81;5072474;28;20153;-65
2023/12/29 00:46:05;;;;;;;40.28;4.90;;;;;;;5.77;100.00;99033.44;5072451;28;20064;-65
2023/12/29 00:48:31;;;;;;;31.88;3.95;;;;;;;5.77;100.00;99033.44;5072294;28;20033;-65
2023/12/29 00:50:56;;;;;;;42.10;4.78;;;;;;;5.81;100.00;99037.31;5072943;28;20048;-65
2023/12/29 00:53:22;;;;;;;31.92;4.25;;;;;;;5.84;100.00;99036.88;5072388;28;20025;-65
2023/12/29 00:55:47;;;;;;;43.58;4.90;;;;;;;5.87;100.00;99033.78;5054322;28;20391;-65
2023/12/29 00:58:13;;;;;;;42.53;4.40;;;;;;;5.92;100.00;99017.13;5072369;28;20048;-65
2023/12/29 01:00:39;;;;;;;40.58;4.47;;;;;;;5.87;100.00;99007.09;5071620;28;20051;-65
2023/12/29 01:03:06;;;;;;;32.63;4.57;;;;;;;5.93;100.00;99018.78;5072245;28;20044;-65
2023/12/29 01:05:31;;;;;;;37.28;4.82;;;;;;;5.93;100.00;99022.31;5071786;28;20028;-65
2023/12/29 01:07:57;;;;;;;35.25;4.47;;;;;;;5.94;100.00;99012.44;5072005;28;20078;-65
2023/12/29 01:10:22;;;;;;;42.05;4.78;;;;;;;5.94;100.00;99015.13;5054401;28;20499;-65
2023/12/29 01:12:48;;;;;;;48.17;5.32;;;;;;;5.95;100.00;99019.41;5053933;28;20050;-65
2023/12/29 01:15:13;;;;;;;39.08;4.72;;;;;;;5.87;100.00;99007.91;5071731;28;20036;-65
2023/12/29 01:17:39;;;;;;;37.00;4.95;;;;;;;5.95;100.00;99025.56;5071731;28;20027;-65
2023/12/29 01:20:05;;;;;;;46.55;4.88;;;;;;;5.92;100.00;99031.28;5054039;28;20029;-65
2023/12/29 01:22:30;;;;;;;42.03;5.15;;;;;;;5.93;100.00;99037.47;5053777;28;20082;-65
2023/12/29 01:24:55;;;;;;;40.35;4.90;;;;;;;5.90;100.00;99033.38;5053604;28;20032;-65
2023/12/29 01:27:21;;;;;;;44.10;5.63;;;;;;;5.93;100.00;99030.31;5054252;28;20032;-65
2023/12/29 01:29:47;;;;;;;50.75;5.50;;;;;;;5.92;100.00;99025.97;5053562;28;20028;-65
2023/12/29 01:32:12;;;;;;;46.17;5.78;;;;;;;5.95;100.00;99030.91;5054076;28;20034;-65
2023/12/29 01:34:37;;;;;;;45.53;5.57;;;;;;;5.97;100.00;99028.84;5071147;28;20482;-65
2023/12/29 01:37:03;;;;;;;40.25;4.70;;;;;;;5.92;100.00;99009.94;5071394;28;20036;-65
2023/12/29 01:39:29;;;;;;;36.22;5.07;;;;;;;5.87;100.00;98999.09;5053544;28;20115;-65
2023/12/29 01:41:55;;;;;;;44.20;5.60;;;;;;;6.02;100.00;99022.84;5050324;28;20064;-65
2023/12/29 01:44:22;;;;;;;50.28;5.88;;;;;;;6.05;100.00;99025.91;5051665;28;20033;-65
2023/12/29 01:46:50;;;;;;;45.13;5.32;;;;;;;6.07;100.00;99012.38;5051199;28;20033;-66
2023/12/29 01:49:19;;;;;;;43.67;5.78;;;;;;;6.09;100.00;99013.81;5051508;28;20029;-65
2023/12/29 01:51:51;;;;;;;50.55;6.90;;;;;;;6.08;100.00;99004.13;5049934;28;20585;-65
2023/12/29 01:54:18;;;;;;;44.67;5.65;;;;;;;6.08;100.00;98996.13;5050973;28;20033;-65
2023/12/29 01:56:45;;;;;;;42.72;5.75;;;;;;;6.11;100.00;98992.22;5049438;28;20094;-65
2023/12/29 01:59:10;;;;;;;52.25;5.50;;;;;;;6.06;100.00;98984.84;5049591;28;20033;-66
2023/12/29 02:01:37;;;;;;;47.95;5.85;;;;;;;6.04;100.00;98988.78;5050741;28;20373;-66
2023/12/29 02:04:03;;;;;;;37.42;5.10;;;;;;;5.99;100.00;98989.38;5050881;28;20048;-66
2023/12/29 02:06:31;;;;;;;34.03;4.60;;;;;;;5.97;100.00;98996.81;5033404;28;20633;-66
2023/12/29 02:09:00;;;;;;;36.78;5.65;;;;;;;5.93;100.00;98994.75;5050657;28;20037;-66
2023/12/29 02:11:26;;;;;;;38.05;5.13;;;;;;;5.90;100.00;98996.00;5049745;28;20052;-66
2023/12/29 02:13:51;;;;;;;39.03;4.88;;;;;;;5.91;100.00;98994.16;5050609;28;20666;-66
2023/12/29 02:16:30;;;;;;;41.55;4.85;;;;;;;5.82;100.00;98982.88;5050883;28;20095;-65
2023/12/29 02:18:59;;;;;;;35.33;4.50;;;;;;;5.88;100.00;98990.03;5049185;28;20078;-66
2023/12/29 02:21:25;;;;;;;38.30;4.65;;;;;;;5.88;100.00;98998.88;5051179;28;20067;-66
2023/12/29 02:23:50;;;;;;;31.50;5.03;;;;;;;5.91;100.00;99002.16;5032600;28;20499;-66
2023/12/29 02:26:19;;;;;;;43.50;5.43;;;;;;;5.81;100.00;98990.06;5050642;28;20086;-66
2023/12/29 02:28:51;;;;;;;45.53;6.20;;;;;;;5.85;100.00;99009.97;5050562;28;20119;-66
2023/12/29 02:31:20;;;;;;;44.78;6.03;;;;;;;5.71;100.00;98976.38;5049359;28;20120;-66
2023/12/29 02:33:47;;;;;;;44.75;5.40;;;;;;;5.88;100.00;99006.88;5050815;28;20031;-66
2023/12/29 02:36:14;;;;;;;49.30;6.15;;;;;;;5.86;100.00;99006.28;5050393;28;20090;-66
2023/12/29 02:38:40;;;;;;;37.45;5.53;;;;;;;5.81;100.00;98991.94;5050692;28;20036;-66
2023/12/29 02:41:06;;;;;;;48.72;7.05;;;;;;;5.87;100.00;99007.09;5053784;28;20399;-66
2023/12/29 02:43:32;;;;;;;54.00;5.68;;;;;;;5.88;100.00;99003.41;5052735;28;20032;-66
2023/12/29 02:45:58;;;;;;;47.50;6.00;;;;;;;5.86;100.00;99010.78;5072686;28;20380;-65
2023/12/29 02:48:23;;;;;;;60.53;6.95;;;;;;;5.82;100.00;99009.56;5053360;28;20078;-66
2023/12/29 02:50:48;;;;;;;59.10;7.18;;;;;;;5.80;100.00;99006.31;5052206;28;20020;-66
2023/12/29 02:53:14;;;;;;;59.65;7.25;;;;;;;5.75;100.00;99004.28;5052996;28;20537;-65
2023/12/29 02:55:39;;;;;;;57.55;6.78;;;;;;;5.70;100.00;99011.28;5055213;28;20123;-66
2023/12/29 02:58:05;;;;;;;64.38;8.40;;;;;;;5.64;100.00;98995.09;5077458;28;20032;-66
2023/12/29 03:00:30;;;;;;;63.22;7.32;;;;;;;5.61;100.00;98995.50;5058934;28;20032;-66
2023/12/29 03:02:55;;;;;;;67.18;8.27;;;;;;;5.56;100.00;98998.00;5059144;28;20047;-66
2023/12/29 03:05:21;;;;;;;59.53;7.25;;;;;;;5.52;100.00;98988.75;5076899;28;20043;-66
2023/12/29 03:07:47;;;;;;;64.00;8.23;;;;;;;5.43;100.00;98990.03;5058797;28;20033;-66
2023/12/29 03:10:13;;;;;;;59.50;7.10;;;;;;;5.48;100.00;98997.41;5077014;28;20039;-67
2023/12/29 03:12:38;;;;;;;64.93;7.60;;;;;;;5.44;100.00;98990.88;5076650;28;20024;-66
2023/12/29 03:15:04;;;;;;;60.03;7.43;;;;;;;5.44;100.00;98986.34;5076456;28;20053;-66
2023/12/29 03:17:30;;;;;;;59.47;6.75;;;;;;;5.42;100.00;98983.06;5077046;28;20028;-65
2023/12/29 03:19:55;;;;;;;57.90;7.85;;;;;;;5.41;100.00;98992.09;5058934;28;20047;-66
2023/12/29 03:22:21;;;;;;;70.22;8.45;;;;;;;5.37;100.00;98981.03;5058998;28;20036;-67
2023/12/29 03:24:46;;;;;;;63.35;7.68;;;;;;;5.37;100.00;98967.69;5059018;28;20040;-66
2023/12/29 03:27:11;;;;;;;55.05;6.60;;;;;;;5.30;100.00;98963.41;5077112;28;20033;-66
2023/12/29 03:29:37;;;;;;;64.28;7.32;;;;;;;5.39;100.00;98972.81;5076450;28;20476;-66
2023/12/29 03:32:03;;;;;;;55.50;6.88;;;;;;;5.34;100.00;98967.28;5077067;28;20036;-66
2023/12/29 03:34:28;;;;;;;53.88;6.68;;;;;;;5.31;100.00;98965.84;5058953;28;20078;-66
2023/12/29 03:36:53;;;;;;;55.95;6.78;;;;;;;5.31;100.00;98965.03;5058789;28;20029;-66
2023/12/29 03:39:19;;;;;;;68.38;7.28;;;;;;;5.28;100.00;98966.28;5058194;28;20024;-66
2023/12/29 03:41:46;;;;;;;61.30;6.90;;;;;;;5.25;100.00;98974.69;5076541;28;20052;-66
2023/12/29 03:44:12;;;;;;;57.40;6.60;;;;;;;5.24;100.00;98966.91;5076455;28;20055;-66
2023/12/29 03:46:37;;;;;;;64.90;7.07;;;;;;;5.22;100.00;98964.44;5058708;28;20494;-66
2023/12/29 03:49:03;;;;;;;59.45;7.68;;;;;;;5.04;100.00;98935.78;5076986;28;20150;-66
2023/12/29 03:51:29;;;;;;;67.18;7.85;;;;;;;5.16;100.00;98954.63;5058765;28;20406;-67
2023/12/29 03:53:54;;;;;;;56.15;6.93;;;;;;;5.04;100.00;98930.47;5075961;28;20023;-66
2023/12/29 03:56:20;;;;;;;65.78;8.27;;;;;;;5.17;100.00;98957.09;5076655;28;20037;-66
2023/12/29 03:58:46;;;;;;;75.70;8.02;;;;;;;5.18;100.00;98961.38;5076262;28;20028;-71
2023/12/29 04:01:13;;;;;;;60.47;6.90;;;;;;;5.19;100.00;98952.34;5076610;28;20090;-68
2023/12/29 04:03:39;;;;;;;55.45;7.43;;;;;;;5.18;100.00;98956.03;5076142;28;20028;-65
2023/12/29 04:06:05;;;;;;;59.13;6.85;;;;;;;5.19;100.00;98962.19;5058579;28;20548;-66
2023/12/29 04:08:30;;;;;;;58.30;6.47;;;;;;;5.16;100.00;98952.75;5053927;28;20094;-65
2023/12/29 04:10:56;;;;;;;71.25;8.25;;;;;;;5.00;100.00;98926.59;5073695;28;20048;-66
2023/12/29 04:13:21;;;;;;;65.18;6.93;;;;;;;5.16;100.00;98955.44;5073177;28;20029;-65
2023/12/29 04:15:47;;;;;;;60.40;7.30;;;;;;;5.16;100.00;98955.44;5073260;28;20405;-68
2023/12/29 04:18:12;;;;;;;61.55;6.97;;;;;;;5.18;100.00;98958.72;5073519;28;20064;-66
2023/12/29 04:20:37;;;;;;;59.38;7.05;;;;;;;5.22;100.00;98961.78;5054937;28;20043;-66
2023/12/29 04:23:06;;;;;;;53.75;6.82;;;;;;;5.23;100.00;98966.09;5038864;28;20107;-66
2023/12/29 04:25:31;;;;;;;71.32;7.72;;;;;;;5.25;100.00;98961.38;5072935;28;20028;-65
2023/12/29 04:27:56;;;;;;;63.03;6.97;;;;;;;5.27;100.00;98958.50;5055216;28;20024;-66
2023/12/29 04:30:21;;;;;;;62.97;7.05;;;;;;;5.16;100.00;98939.44;5073137;28;20033;-66
2023/12/29 04:32:47;;;;;;;65.70;7.65;;;;;;;5.34;100.00;98954.78;5054479;28;20115;-66
2023/12/29 04:35:14;;;;;;;64.47;8.18;;;;;;;5.37;100.00;98942.88;5054652;28;20402;-66
2023/12/29 04:37:40;;;;;;;66.80;7.07;;;;;;;5.39;100.00;98946.94;5072215;28;20123;-66
2023/12/29 04:40:06;;;;;;;62.85;8.30;;;;;;;5.42;100.00;98943.84;5054782;28;20160;-68
2023/12/29 04:42:31;;;;;;;63.72;6.97;;;;;;;5.43;100.00;98936.69;5053716;28;20049;-65
2023/12/29 04:44:57;;;;;;;61.67;7.95;;;;;;;5.44;100.00;98938.31;5054795;28;20035;-66
2023/12/29 04:47:22;;;;;;;56.08;6.20;;;;;;;5.42;100.00;98933.19;5072428;28;20032;-66
2023/12/29 04:49:49;;;;;;;52.90;6.50;;;;;;;5.45;100.00;98934.63;5054307;28;20399;-65
2023/12/29 04:52:14;;;;;;;57.78;6.68;;;;;;;5.48;100.00;98938.72;5055247;28;20041;-65
2023/12/29 04:54:39;;;;;;;59.70;7.22;;;;;;;5.47;100.00;98940.56;5071711;28;20031;-65
2023/12/29 04:57:05;;;;;;;68.95;7.40;;;;;;;5.47;100.00;98931.75;5037808;28;20044;-66
2023/12/29 04:59:30;;;;;;;50.65;6.63;;;;;;;5.31;100.00;98903.72;5053617;28;20410;-66
2023/12/29 05:01:55;;;;;;;64.40;7.18;;;;;;;5.46;100.00;98925.56;5054765;28;20032;-65
2023/12/29 05:04:21;;;;;;;59.58;6.20;;;;;;;5.37;100.00;98906.34;5038234;28;20085;-67
2023/12/29 05:06:46;;;;;;;62.40;7.05;;;;;;;5.37;100.00;98900.19;5072584;28;20040;-69
2023/12/29 05:09:11;;;;;;;61.22;7.55;;;;;;;5.51;100.00;98917.78;5072440;28;20039;-66
2023/12/29 05:11:37;;;;;;;58.13;7.13;;;;;;;5.51;100.00;98917.78;5072394;28;20025;-66
2023/12/29 05:14:02;;;;;;;67.97;7.10;;;;;;;5.50;100.00;98918.81;5054222;28;20040;-65
2023/12/29 05:16:29;;;;;;;48.50;6.28;;;;;;;5.52;100.00;98915.91;5054234;28;20040;-65
2023/12/29 05:18:55;;;;;;;59.58;6.50;;;;;;;5.52;100.00;98908.72;5071435;28;20028;-66
2023/12/29 05:21:21;;;;;;;53.83;6.40;;;;;;;5.53;100.00;98913.06;5053998;28;20031;-66
2023/12/29 05:23:47;;;;;;;51.67;7.60;;;;;;;5.53;100.00;98899.72;5071735;28;20093;-66
2023/12/29 05:26:14;;;;;;;49.33;6.80;;;;;;;5.56;100.00;98904.63;5054198;28;20410;-65
2023/12/29 05:28:39;;;;;;;63.05;6.75;;;;;;;5.43;100.00;98878.00;5072794;28;20021;-66
2023/12/29 05:31:05;;;;;;;59.13;6.63;;;;;;;5.61;100.00;98896.78;5054149;28;20501;-65
2023/12/29 05:33:31;;;;;;;50.63;6.32;;;;;;;5.48;100.00;98875.50;5053550;28;20028;-66
2023/12/29 05:35:57;;;;;;;52.55;6.95;;;;;;;5.64;100.00;98887.53;5053877;28;20013;-66
2023/12/29 05:38:22;;;;;;;53.67;6.72;;;;;;;5.63;100.00;98881.38;5053490;28;20029;-66
2023/12/29 05:40:47;;;;;;;39.67;6.15;;;;;;;5.64;100.00;98876.88;5036886;28;20078;-66
2023/12/29 05:43:13;;;;;;;53.63;6.70;;;;;;;5.25;100.00;98808.56;5071210;28;20093;-66
2023/12/29 05:45:38;;;;;;;61.38;7.43;;;;;;;5.65;100.00;98865.97;5053220;28;20025;-66
2023/12/29 05:48:04;;;;;;;49.50;6.38;;;;;;;5.68;100.00;98874.59;5036389;28;20035;-66
2023/12/29 05:50:29;;;;;;;56.08;6.55;;;;;;;5.68;100.00;98872.72;5071299;28;20020;-65
2023/12/29 05:52:55;;;;;;;50.70;7.20;;;;;;;5.69;100.00;98869.03;5070980;28;20101;-65
2023/12/29 05:55:22;;;;;;;57.90;6.25;;;;;;;5.71;100.00;98868.81;5053309;28;20059;-65
2023/12/29 05:57:48;;;;;;;59.20;6.90;;;;;;;5.71;100.00;98863.47;5070929;28;20116;-65
2023/12/29 06:00:14;;;;;;;64.00;7.00;;;;;;;5.60;100.00;98840.97;5071021;28;20032;-66
2023/12/29 06:02:41;;;;;;;58.92;7.38;;;;;;;5.71;100.00;98858.16;5069673;28;20135;-66
2023/12/29 06:05:07;;;;;;;52.47;6.53;;;;;;;5.72;100.00;98863.25;5070045;28;20040;-66
2023/12/29 06:07:33;;;;;;;55.55;6.55;;;;;;;5.72;100.00;98857.09;5052778;28;20137;-66
2023/12/29 06:09:59;;;;;;;47.45;5.65;;;;;;;5.71;100.00;98845.63;5052089;28;20041;-66
2023/12/29 06:12:26;;;;;;;43.28;5.60;;;;;;;5.70;100.00;98840.50;5070658;28;20036;-67
2023/12/29 06:14:51;;;;;;;50.55;6.22;;;;;;;5.70;100.00;98843.19;5070717;28;20032;-66
2023/12/29 06:17:17;;;;;;;57.33;7.03;;;;;;;5.69;100.00;98845.00;5035830;28;20705;-66
2023/12/29 06:19:42;;;;;;;61.15;7.32;;;;;;;5.72;100.00;98843.75;5052173;28;20024;-65
2023/12/29 06:22:11;;;;;;;50.72;6.20;;;;;;;5.71;100.00;98840.28;5052556;28;20082;-65
2023/12/29 06:24:37;;;;;;;59.92;7.10;;;;;;;5.64;100.00;98818.97;5037144;28;20028;-71
2023/12/29 06:27:03;;;;;;;53.22;7.28;;;;;;;5.73;100.00;98834.72;5052609;28;20028;-65
2023/12/29 06:29:28;;;;;;;64.78;6.95;;;;;;;5.72;100.00;98828.56;5052209;28;20047;-66
2023/12/29 06:31:54;;;;;;;60.65;6.65;;;;;;;5.72;100.00;98827.75;5052471;28;20518;-67
2023/12/29 06:34:19;;;;;;;55.88;6.25;;;;;;;5.72;100.00;98827.75;5053128;28;20111;-68
2023/12/29 06:36:44;;;;;;;49.35;5.15;;;;;;;5.73;100.00;98834.72;5070388;28;20027;-66
2023/12/29 06:39:10;;;;;;;64.10;8.32;;;;;;;5.73;100.00;98834.72;5053456;28;20206;-67
2023/12/29 06:41:35;;;;;;;62.78;6.93;;;;;;;5.73;100.00;98826.72;5070934;28;20575;-68
2023/12/29 06:44:01;;;;;;;42.33;5.50;;;;;;;5.74;100.00;98831.84;5071082;28;20032;-67
2023/12/29 06:46:26;;;;;;;51.13;5.72;;;;;;;5.75;100.00;98835.31;5053076;28;20024;-68
2023/12/29 06:48:52;;;;;;;40.53;4.95;;;;;;;5.76;100.00;98837.78;5070859;28;20601;-67
2023/12/29 06:51:18;;;;;;;51.80;6.47;;;;;;;5.75;100.00;98821.97;5052782;28;20143;-67
2023/12/29 06:53:45;;;;;;;41.22;5.60;;;;;;;5.76;100.00;98823.59;5035743;28;20448;-68
2023/12/29 06:56:17;;;;;;;36.25;4.93;;;;;;;5.76;100.00;98823.59;5070792;28;20397;-66
2023/12/29 06:58:43;;;;;;;42.80;5.88;;;;;;;5.74;100.00;98818.50;5070844;28;20021;-66
2023/12/29 07:01:09;;;;;;;40.30;5.03;;;;;;;5.72;100.00;98825.09;5052159;28;20085;-68
2023/12/29 07:03:34;;;;;;;43.30;5.13;;;;;;;5.61;100.00;98795.41;5052544;28;20111;-67
2023/12/29 07:06:04;;;;;;;42.13;5.43;;;;;;;5.76;100.00;98828.94;5036122;28;20028;-66
2023/12/29 07:08:29;;;;;;;49.30;6.10;;;;;;;5.75;100.00;98830.00;5070504;28;20029;-66
2023/12/29 07:10:55;;;;;;;45.53;6.15;;;;;;;5.76;100.00;98845.81;5070775;28;20040;-66
2023/12/29 07:13:20;;;;;;;48.03;5.38;;;;;;;5.75;100.00;98832.66;5071048;28;20479;-69
2023/12/29 07:15:49;;;;;;;49.05;5.53;;;;;;;5.60;100.00;98803.63;5072348;28;20143;-68
2023/12/29 07:18:15;;;;;;;46.75;6.05;;;;;;;5.76;100.00;98827.13;5053503;28;20479;-69
2023/12/29 07:20:42;;;;;;;51.60;5.75;;;;;;;5.75;100.00;98825.47;5052386;28;20075;-68
2023/12/29 07:23:07;;;;;;;44.53;5.85;;;;;;;5.76;100.00;98823.59;5052083;28;20048;-68
2023/12/29 07:25:33;;;;;;;45.78;5.00;;;;;;;5.75;100.00;98827.31;5052088;28;20043;-65
2023/12/29 07:27:58;;;;;;;50.53;5.57;;;;;;;5.72;100.00;98811.75;5069374;28;20031;-68
2023/12/29 07:30:23;;;;;;;48.97;5.25;;;;;;;5.73;100.00;98819.53;5052001;28;20124;-67
2023/12/29 07:32:49;;;;;;;46.60;5.57;;;;;;;5.70;100.00;98816.50;5069459;28;20039;-68
2023/12/29 07:35:17;;;;;;;41.58;4.70;;;;;;;5.42;100.00;98775.00;5050613;28;20032;-68
2023/12/29 07:37:48;;;;;;;37.08;5.60;;;;;;;5.75;100.00;98827.31;5051185;28;20219;-68
2023/12/29 07:40:14;;;;;;;46.45;5.88;;;;;;;5.76;100.00;98831.63;5069995;28;20170;-68
2023/12/29 07:42:40;;;;;;;44.55;6.43;;;;;;;5.77;100.00;98827.94;5072890;28;20080;-67
2023/12/29 07:45:06;;;;;;;48.75;5.60;;;;;;;5.76;100.00;98828.94;5056063;28;20216;-67
2023/12/29 07:47:32;;;;;;;38.22;5.55;;;;;;;5.65;100.00;98809.94;5073668;28;20029;-68
2023/12/29 07:49:57;;;;;;;39.10;6.03;;;;;;;5.68;100.00;98822.03;5071097;28;20025;-67
2023/12/29 07:52:23;;;;;;;50.13;5.43;;;;;;;5.79;100.00;98833.84;5053154;28;20034;-68
2023/12/29 07:54:49;;;;;;;37.38;5.72;;;;;;;5.79;100.00;98834.66;5052964;28;20595;-69
2023/12/29 07:57:15;;;;;;;47.10;6.03;;;;;;;5.81;100.00;98834.47;5052905;28;20024;-67
2023/12/29 07:59:40;;;;;;;46.72;5.18;;;;;;;5.83;100.00;98843.09;5070315;28;20035;-67
2023/12/29 08:02:06;;;;;;;47.80;6.40;;;;;;;5.81;100.00;98831.81;5070912;28;20419;-67
2023/12/29 08:04:32;;;;;;;37.90;5.82;;;;;;;5.84;100.00;98832.19;5072406;28;20040;-67
2023/12/29 08:06:57;;;;;;;51.40;6.63;;;;;;;5.84;100.00;98834.84;5055681;28;20037;-68
2023/12/29 08:09:23;;;;;;;49.20;5.97;;;;;;;5.82;100.00;98836.91;5073180;28;20033;-67
2023/12/29 08:11:49;;;;;;;46.13;5.88;;;;;;;5.83;100.00;98840.41;5055633;28;20029;-67
2023/12/29 08:14:14;;;;;;;49.78;5.93;;;;;;;5.84;100.00;98836.72;5073408;28;20116;-68
2023/12/29 08:16:40;;;;;;;48.58;6.47;;;;;;;5.83;100.00;98835.91;5073275;28;20081;-67
2023/12/29 08:19:07;;;;;;;37.28;4.93;;;;;;;5.83;100.00;98835.09;5072833;28;20021;-68
2023/12/29 08:21:33;;;;;;;45.53;5.72;;;;;;;5.63;100.00;98804.00;5072850;28;20029;-67
2023/12/29 08:23:58;;;;;;;39.00;4.50;;;;;;;5.85;100.00;98844.47;5071810;28;20020;-68
2023/12/29 08:26:24;;;;;;;41.65;5.05;;;;;;;5.86;100.00;98840.81;5053957;28;20024;-68
2023/12/29 08:28:50;;;;;;;51.25;6.20;;;;;;;5.87;100.00;98838.94;5070524;28;20513;-68
2023/12/29 08:31:16;;;;;;;40.85;5.43;;;;;;;5.87;100.00;98839.75;5054997;28;20052;-68
2023/12/29 08:33:41;;;;;;;47.28;5.40;;;;;;;5.87;100.00;98831.75;5061574;28;20028;-68
2023/12/29 08:36:07;;;;;;;43.92;5.90;;;;;;;5.87;100.00;98831.75;5054388;28;20456;-68
2023/12/29 08:38:32;;;;;;;49.38;6.13;;;;;;;5.88;100.00;98836.03;5072068;28;20075;-67
2023/12/29 08:40:58;;;;;;;46.45;5.50;;;;;;;5.67;100.00;98795.56;5054256;28;20081;-68
2023/12/29 08:43:24;;;;;;;41.65;5.57;;;;;;;5.88;100.00;98837.91;5073171;28;20028;-68
2023/12/29 08:45:49;;;;;;;51.45;6.40;;;;;;;5.87;100.00;98836.28;5072250;28;20103;-68
2023/12/29 08:48:16;;;;;;;50.97;7.20;;;;;;;5.91;100.00;98842.00;5074174;28;20122;-68
2023/12/29 08:50:42;;;;;;;42.70;5.40;;;;;;;5.84;100.00;98824.19;5072882;28;20103;-67
2023/12/29 08:53:09;;;;;;;48.08;5.65;;;;;;;5.82;100.00;98820.91;5070698;28;20036;-68
2023/12/29 08:55:34;;;;;;;39.28;5.15;;;;;;;5.80;100.00;98816.81;5073736;28;20406;-68
2023/12/29 08:57:59;;;;;;;42.08;5.47;;;;;;;5.95;100.00;98844.03;5077226;28;20029;-67
2023/12/29 09:00:25;;;;;;;46.50;5.80;;;;;;;5.95;100.00;98841.38;5055405;28;20479;-68
2023/12/29 09:02:51;;;;;;;49.33;5.97;;;;;;;5.94;100.00;98842.41;5054151;28;20028;-67
2023/12/29 09:05:16;;;;;;;42.30;5.10;;;;;;;5.93;100.00;98835.44;5071669;28;20723;-68
2023/12/29 09:07:43;;;;;;;45.80;5.30;;;;;;;5.93;100.00;98846.13;5071505;28;20028;-68
2023/12/29 09:10:11;;;;;;;37.30;4.93;;;;;;;5.90;100.00;98838.50;5053914;28;20029;-67
2023/12/29 09:12:38;;;;;;;45.05;5.85;;;;;;;5.74;100.00;98804.34;5071095;28;20035;-68
2023/12/29 09:15:04;;;;;;;32.22;4.68;;;;;;;5.88;100.00;98837.91;5071649;28;20402;-67
2023/12/29 09:17:29;;;;;;;42.08;5.15;;;;;;;5.90;100.00;98841.19;5071415;28;20036;-68
2023/12/29 09:19:56;;;;;;;42.50;5.00;;;;;;;5.92;100.00;98827.59;5052588;28;20024;-68
2023/12/29 09:22:22;;;;;;;36.47;4.65;;;;;;;5.89;100.00;98844.88;5070352;28;20043;-68
2023/12/29 09:24:47;;;;;;;43.95;5.50;;;;;;;5.88;100.00;98836.03;5052380;28;20025;-67
2023/12/29 09:27:13;;;;;;;25.77;4.25;;;;;;;5.91;100.00;98839.31;5070857;28;20471;-68
2023/12/29 09:29:40;;;;;;;33.33;4.70;;;;;;;5.92;100.00;98843.63;5070822;28;20225;-67
2023/12/29 09:32:06;;;;;;;29.02;4.55;;;;;;;5.92;100.00;98840.94;5035970;28;20082;-68
2023/12/29 09:34:31;;;;;;;47.88;6.50;;;;;;;5.94;100.00;98837.06;5071430;28;20036;-68
2023/12/29 09:36:57;;;;;;;41.65;5.22;;;;;;;5.97;100.00;98841.97;5072063;28;20108;-67
2023/12/29 09:39:24;;;;;;;39.92;4.85;;;;;;;5.99;100.00;98839.88;5053747;28;20028;-68
2023/12/29 09:41:53;;;;;;;32.63;3.92;;;;;;;6.00;100.00;98843.41;5053953;28;20135;-68
2023/12/29 09:44:21;;;;;;;36.38;5.63;;;;;;;5.97;100.00;98847.31;5053753;28;20066;-68
2023/12/29 09:46:50;;;;;;;30.98;4.25;;;;;;;5.99;100.00;98839.06;5053813;28;20060;-68
2023/12/29 09:49:18;;;;;;;31.52;4.00;;;;;;;6.03;100.00;98848.31;5037261;28;20032;-68
2023/12/29 09:51:46;;;;;;;31.80;4.63;;;;;;;6.04;100.00;98844.59;5071417;28;20024;-68
2023/12/29 09:54:13;;;;;;;39.40;4.85;;;;;;;6.04;100.00;98848.06;5053437;28;20025;-68
2023/12/29 09:56:39;;;;;;;30.15;3.40;;;;;;;6.02;100.00;98834.13;5053844;28;20024;-68
2023/12/29 09:59:06;;;;;;;33.42;4.22;;;;;;;6.00;100.00;98830.88;5053603;28;20123;-67
2023/12/29 10:01:33;;;;;;;29.77;4.15;;;;;;;6.07;100.00;98833.47;5069853;28;20127;-67
2023/12/29 10:03:58;;;;;;;31.88;4.90;;;;;;;6.06;100.00;98839.84;5069779;28;20036;-67
2023/12/29 10:06:25;;;;;;;26.58;3.97;;;;;;;6.04;100.00;98837.41;5035340;28;20510;-67
2023/12/29 10:08:51;;;;;;;31.73;4.45;;;;;;;6.08;100.00;98830.56;5052772;28;20143;-69
2023/12/29 10:11:25;;;;;;;35.05;4.15;;;;;;;6.09;100.00;98834.91;5053803;28;20082;-71
2023/12/29 10:13:54;;;;;;;30.97;4.03;;;;;;;6.07;100.00;98842.31;5036730;28;20566;-67
2023/12/29 10:16:27;;;;;;;29.15;4.03;;;;;;;6.08;100.00;98838.59;5071442;28;20033;-67
2023/12/29 10:19:23;;;;;;;32.50;4.45;;;;;;;6.09;100.00;98842.06;5070887;28;20028;-67
2023/12/29 10:22:02;;;;;;;26.98;3.95;;;;;;;6.10;100.00;98838.38;5070998;28;20020;-67
2023/12/29 10:24:28;;;;;;;32.28;3.35;;;;;;;6.09;100.00;98840.25;5052984;28;20033;-67
2023/12/29 10:26:54;;;;;;;31.35;4.60;;;;;;;6.11;100.00;98845.34;5052942;28;20449;-67
2023/12/29 10:29:21;;;;;;;34.70;4.25;;;;;;;6.11;100.00;98826.66;5053139;28;20025;-67
2023/12/29 10:31:46;;;;;;;32.55;4.75;;;;;;;6.14;100.00;98825.41;5070702;28;20129;-67
2023/12/29 10:34:31;;;;;;;30.15;4.30;;;;;;;6.14;100.00;98842.25;5070758;28;20538;-67
2023/12/29 10:37:08;;;;;;;32.30;4.38;;;;;;;6.07;100.00;98844.97;5052467;28;20024;-67
2023/12/29 10:39:36;;;;;;;34.45;4.63;;;;;;;6.13;100.00;98850.50;5069602;28;20028;-68
2023/12/29 10:42:06;;;;;;;24.75;3.50;;;;;;;6.14;100.00;98844.91;5070196;28;20135;-67
2023/12/29 10:44:33;;;;;;;33.05;4.32;;;;;;;5.99;100.00;98823.88;5070891;28;20478;-68
2023/12/29 10:46:58;;;;;;;34.25;5.07;;;;;;;5.99;100.00;98823.06;5052222;28;20131;-68
2023/12/29 10:49:24;;;;;;;32.78;4.13;;;;;;;6.14;100.00;98841.44;5035778;28;20131;-67
2023/12/29 10:51:50;;;;;;;30.77;4.30;;;;;;;6.19;100.00;98854.94;5035949;28;20035;-68
2023/12/29 10:54:24;;;;;;;37.25;4.82;;;;;;;6.08;100.00;98843.94;5070071;28;20491;-66
2023/12/29 10:57:02;;;;;;;32.63;4.88;;;;;;;6.20;100.00;98848.56;5070860;28;20070;-67
2023/12/29 10:59:29;;;;;;;33.65;4.07;;;;;;;6.23;100.00;98848.16;5052599;28;20023;-67
2023/12/29 11:01:56;;;;;;;32.03;4.47;;;;;;;6.24;100.00;98849.78;5070428;28;20008;-67
2023/12/29 11:04:24;;;;;;;24.63;4.10;;;;;;;6.22;100.00;98844.63;5073531;28;20078;-67
2023/12/29 11:06:51;;;;;;;24.55;3.75;;;;;;;6.19;100.00;98829.06;5055871;28;20028;-66
2023/12/29 11:09:29;;;;;;;25.30;4.10;;;;;;;6.26;100.00;98829.00;5073693;28;20070;-67
2023/12/29 11:12:03;;;;;;;23.65;3.58;;;;;;;6.27;100.00;98852.00;5070304;28;20063;-67
2023/12/29 11:14:29;;;;;;;26.58;4.20;;;;;;;6.27;100.00;98852.00;5070909;28;20039;-69
2023/12/29 11:16:55;;;;;;;30.80;4.13;;;;;;;6.08;100.00;98808.41;5072941;28;20115;-71
2023/12/29 11:19:21;;;;;;;24.15;3.50;;;;;;;6.18;100.00;98826.59;5078224;28;20031;-72
2023/12/29 11:21:54;;;;;;;28.25;4.55;;;;;;;6.31;100.00;98823.81;5075880;28;20025;-67